createdAt,value
2022-11-18T00:00:28.131Z,10.77
2022-11-18T00:03:53.381Z,10.69
2022-11-18T00:07:18.606Z,10.68
2022-11-18T00:10:43.816Z,10.65
2022-11-18T00:14:08.997Z,10.6
2022-11-18T00:17:34.197Z,10.59
2022-11-18T00:20:59.423Z,10.56
2022-11-18T00:24:24.657Z,10.57
2022-11-18T00:27:49.876Z,10.59
2022-11-18T00:31:15.049Z,10.59
2022-11-18T00:34:40.262Z,10.51
2022-11-18T00:38:05.464Z,10.47
2022-11-18T00:41:30.665Z,10.49
2022-11-18T00:44:55.901Z,10.51
2022-11-18T00:48:21.079Z,10.51
2022-11-18T00:51:46.288Z,10.61
2022-11-18T00:55:11.494Z,10.7
2022-11-18T00:58:36.713Z,10.78
2022-11-18T01:02:01.935Z,10.81
2022-11-18T01:05:27.095Z,10.8
2022-11-18T01:08:52.309Z,10.81
2022-11-18T01:12:17.519Z,10.78
2022-11-18T01:15:42.734Z,10.78
2022-11-18T01:19:07.975Z,10.81
2022-11-18T01:22:33.184Z,10.84
2022-11-18T01:25:58.405Z,10.83
2022-11-18T01:29:23.648Z,10.84
2022-11-18T01:32:48.851Z,10.88
2022-11-18T01:36:14.080Z,10.92
2022-11-18T01:39:39.273Z,10.92
2022-11-18T01:43:05.052Z,10.91
2022-11-18T01:46:30.265Z,10.93
2022-11-18T01:49:55.483Z,10.98
2022-11-18T01:53:20.708Z,11.02
2022-11-18T01:56:45.893Z,11.07
2022-11-18T02:00:11.115Z,11.09
2022-11-18T02:03:36.326Z,11.15
2022-11-18T02:07:01.604Z,11.2
2022-11-18T02:10:26.764Z,11.22
2022-11-18T02:13:51.964Z,11.22
2022-11-18T02:17:17.182Z,11.22
2022-11-18T02:20:42.390Z,11.22
2022-11-18T02:24:07.616Z,11.26
2022-11-18T02:27:32.852Z,11.28
2022-11-18T02:30:58.036Z,11.29
2022-11-18T02:34:23.271Z,11.22
2022-11-18T02:37:48.479Z,11.21
2022-11-18T02:41:13.695Z,11.21
2022-11-18T02:44:38.955Z,11.17
2022-11-18T02:48:04.144Z,11.15
2022-11-18T02:51:29.370Z,11.12
2022-11-18T02:54:54.587Z,11.1
2022-11-18T02:58:19.786Z,11.1
2022-11-18T03:01:45.120Z,11.11
2022-11-18T03:05:10.213Z,11.11
2022-11-18T03:08:35.421Z,11.13
2022-11-18T03:12:00.635Z,11.13
2022-11-18T03:15:25.853Z,11.12
2022-11-18T03:18:51.097Z,11.11
2022-11-18T03:22:16.291Z,11.09
2022-11-18T03:25:41.493Z,11.12
2022-11-18T03:29:06.715Z,11.16
2022-11-18T03:32:31.915Z,11.22
2022-11-18T03:35:57.145Z,11.24
2022-11-18T03:39:22.333Z,11.26
2022-11-18T03:42:47.526Z,11.27
2022-11-18T03:46:12.736Z,11.24
2022-11-18T03:49:37.951Z,11.22
2022-11-18T03:53:03.185Z,11.24
2022-11-18T03:56:28.397Z,11.27
2022-11-18T03:59:53.615Z,11.31
2022-11-18T04:03:18.820Z,11.31
2022-11-18T04:06:44.033Z,11.33
2022-11-18T04:10:09.260Z,11.35
2022-11-18T04:13:34.431Z,11.38
2022-11-18T04:16:59.642Z,11.4
2022-11-18T04:20:24.835Z,11.42
2022-11-18T04:23:50.035Z,11.43
2022-11-18T04:27:15.289Z,11.43
2022-11-18T04:30:40.459Z,11.46
2022-11-18T04:34:06.074Z,11.45
2022-11-18T04:37:38.686Z,11.46
2022-11-18T04:41:03.946Z,11.46
2022-11-18T04:44:29.200Z,11.49
2022-11-18T04:47:57.669Z,11.48
2022-11-18T04:51:19.791Z,11.48
2022-11-18T04:54:44.992Z,11.44
2022-11-18T04:58:10.217Z,11.41
2022-11-18T05:01:36.110Z,11.37
2022-11-18T05:05:01.208Z,11.34
2022-11-18T05:08:26.417Z,11.33
2022-11-18T05:11:51.641Z,11.33
2022-11-18T05:15:16.830Z,11.35
2022-11-18T05:18:42.059Z,11.37
2022-11-18T05:22:07.220Z,11.37
2022-11-18T05:25:32.443Z,11.34
2022-11-18T05:28:57.643Z,11.32
2022-11-18T05:32:22.834Z,11.28
2022-11-18T05:35:51.110Z,11.26
2022-11-18T05:39:13.272Z,11.25
2022-11-18T05:42:38.452Z,11.24
2022-11-18T05:46:03.661Z,11.25
2022-11-18T05:49:28.876Z,11.28
2022-11-18T05:52:54.111Z,11.33
2022-11-18T05:56:19.298Z,11.36
2022-11-18T05:59:44.516Z,11.37
2022-11-18T06:03:09.787Z,11.36
2022-11-18T06:06:34.938Z,11.37
2022-11-18T06:10:04.972Z,11.41
2022-11-18T06:13:25.320Z,11.44
2022-11-18T06:16:50.530Z,11.46
2022-11-18T06:20:15.734Z,11.47
2022-11-18T06:23:40.948Z,11.5
2022-11-18T06:27:06.175Z,11.52
2022-11-18T06:30:31.555Z,11.53
2022-11-18T06:33:56.751Z,11.51
2022-11-18T06:37:21.950Z,11.5
2022-11-18T06:40:47.153Z,11.49
2022-11-18T06:44:12.415Z,11.48
2022-11-18T06:47:37.567Z,11.43
2022-11-18T06:51:02.779Z,11.41
2022-11-18T06:54:28.129Z,11.38
2022-11-18T06:57:53.289Z,11.37
2022-11-18T07:01:18.595Z,11.39
2022-11-18T07:04:43.711Z,11.41
2022-11-18T07:08:08.925Z,11.43
2022-11-18T07:11:34.145Z,11.43
2022-11-18T07:14:59.350Z,11.42
2022-11-18T07:18:24.577Z,11.4
2022-11-18T07:21:49.760Z,11.41
2022-11-18T07:25:14.971Z,11.43
2022-11-18T07:28:40.192Z,11.46
2022-11-18T07:32:05.389Z,11.49
2022-11-18T07:35:30.625Z,11.53
2022-11-18T07:38:55.810Z,11.58
2022-11-18T07:42:21.025Z,11.61
2022-11-18T07:45:46.231Z,11.64
2022-11-18T07:49:11.472Z,11.64
2022-11-18T07:52:36.700Z,11.64
2022-11-18T07:56:01.877Z,11.66
2022-11-18T07:59:27.098Z,11.66
2022-11-18T08:02:52.313Z,11.62
2022-11-18T08:06:17.533Z,11.6
2022-11-18T08:09:42.767Z,11.57
2022-11-18T08:13:07.951Z,11.52
2022-11-18T08:16:33.159Z,11.5
2022-11-18T08:19:58.375Z,11.42
2022-11-18T08:23:27.309Z,11.3
2022-11-18T08:26:48.817Z,11.19
2022-11-18T08:30:14.013Z,11.08
2022-11-18T08:33:39.215Z,10.99
2022-11-18T08:37:04.426Z,10.96
2022-11-18T08:40:29.644Z,10.92
2022-11-18T08:43:54.902Z,10.88
2022-11-18T08:47:20.069Z,10.82
2022-11-18T08:50:45.272Z,10.74
2022-11-18T08:54:10.481Z,10.71
2022-11-18T08:57:35.692Z,10.64
2022-11-18T09:01:00.929Z,10.61
2022-11-18T09:04:26.112Z,10.54
2022-11-18T09:07:51.319Z,10.51
2022-11-18T09:11:16.510Z,10.49
2022-11-18T09:18:06.997Z,10.49
2022-11-18T09:21:34.610Z,10.51
2022-11-18T09:24:57.399Z,10.57
2022-11-18T09:28:22.601Z,10.57
2022-11-18T09:31:47.810Z,10.49
2022-11-18T09:35:13.077Z,10.42
2022-11-18T09:38:38.236Z,10.35
2022-11-18T09:42:03.438Z,10.3
2022-11-18T09:45:28.647Z,10.31
2022-11-18T09:48:53.871Z,10.33
2022-11-18T09:52:19.093Z,10.25
2022-11-18T09:55:44.273Z,10.21
2022-11-18T09:59:09.492Z,10.18
2022-11-18T10:02:34.693Z,10.11
2022-11-18T10:05:59.918Z,10.05
2022-11-18T10:09:25.154Z,9.96
2022-11-18T10:12:50.334Z,9.95
2022-11-18T10:16:15.564Z,9.94
2022-11-18T10:19:40.769Z,9.9
2022-11-18T10:23:05.985Z,9.82
2022-11-18T10:26:31.321Z,9.77
2022-11-18T10:29:56.410Z,9.75
2022-11-18T10:33:21.615Z,9.71
2022-11-18T10:36:46.832Z,9.68
2022-11-18T10:40:12.067Z,9.65
2022-11-18T10:43:37.317Z,9.64
2022-11-18T10:47:02.499Z,9.6
2022-11-18T10:50:27.707Z,9.6
2022-11-18T10:53:52.920Z,9.55
2022-11-18T10:57:18.135Z,9.48
2022-11-18T11:00:43.381Z,9.46
2022-11-18T11:04:08.548Z,9.39
2022-11-18T11:07:33.831Z,9.35
2022-11-18T11:10:58.999Z,9.25
2022-11-18T11:14:24.228Z,9.13
2022-11-18T11:17:49.548Z,9.07
2022-11-18T11:21:14.646Z,9.03
2022-11-18T11:24:39.867Z,9
2022-11-18T11:28:20.472Z,8.98
2022-11-18T11:31:30.320Z,8.97
2022-11-18T11:34:55.541Z,8.97
2022-11-18T11:38:20.717Z,8.96
2022-11-18T11:41:45.930Z,8.96
2022-11-18T11:45:11.129Z,8.96
2022-11-18T11:48:36.321Z,8.91
2022-11-18T11:52:01.577Z,8.87
2022-11-18T11:55:26.743Z,8.83
2022-11-18T11:58:51.963Z,8.75
2022-11-18T12:02:17.342Z,8.67
2022-11-18T12:05:42.362Z,8.59
2022-11-18T12:09:07.619Z,8.54
2022-11-18T12:12:32.790Z,8.59
2022-11-18T12:15:57.999Z,8.63
2022-11-18T12:19:23.208Z,8.56
2022-11-18T12:22:48.414Z,8.5
2022-11-18T12:26:13.672Z,8.47
2022-11-18T12:29:38.885Z,8.51
2022-11-18T12:33:04.082Z,8.51
2022-11-18T12:36:29.277Z,8.42
2022-11-18T12:39:54.494Z,8.28
2022-11-18T12:43:19.724Z,8.21
2022-11-18T12:46:45.820Z,8.16
2022-11-18T12:50:10.135Z,8.14
2022-11-18T12:53:35.323Z,8.11
2022-11-18T12:57:00.545Z,8.12
2022-11-18T13:00:25.876Z,8.16
2022-11-18T13:03:51.004Z,8.13
2022-11-18T13:07:16.234Z,8.03
2022-11-18T13:10:41.420Z,7.9
2022-11-18T13:14:06.619Z,7.84
2022-11-18T13:17:31.850Z,7.71
2022-11-18T13:20:57.037Z,7.64
2022-11-18T13:24:22.243Z,7.57
2022-11-18T13:27:47.449Z,7.47
2022-11-18T13:31:12.676Z,7.33
2022-11-18T13:34:37.929Z,7.26
2022-11-18T13:38:03.109Z,7.23
2022-11-18T13:41:28.354Z,7.27
2022-11-18T13:44:53.556Z,7.26
2022-11-18T13:48:18.756Z,7.19
2022-11-18T13:51:44.018Z,7.08
2022-11-18T13:55:09.203Z,6.96
2022-11-18T13:58:49.903Z,6.87
2022-11-18T14:01:59.624Z,6.84
2022-11-18T14:05:24.859Z,6.78
2022-11-18T14:08:50.084Z,6.76
2022-11-18T14:12:15.283Z,6.74
2022-11-18T14:15:43.687Z,6.79
2022-11-18T14:19:05.741Z,6.8
2022-11-18T14:22:30.965Z,6.79
2022-11-18T14:25:56.168Z,6.68
2022-11-18T14:29:21.620Z,6.65
2022-11-18T15:03:58.045Z,4.15
2022-11-18T15:07:24.156Z,5.06
2022-11-18T15:10:48.424Z,5.22
2022-11-18T15:14:13.623Z,5.4
2022-11-18T15:17:38.819Z,5.54
2022-11-18T15:21:04.060Z,5.61
2022-11-18T15:24:29.256Z,5.68
2022-11-18T15:27:54.467Z,5.69
2022-11-18T15:31:19.662Z,5.67
2022-11-18T15:34:44.881Z,5.7
2022-11-18T15:38:10.104Z,5.71
2022-11-18T15:41:35.281Z,5.69
2022-11-18T15:45:00.482Z,5.73
2022-11-18T15:48:25.676Z,5.75
2022-11-18T15:51:50.866Z,5.7
2022-11-18T15:55:16.097Z,5.64
2022-11-18T15:58:41.294Z,5.58
2022-11-18T16:02:06.489Z,5.55
2022-11-18T16:05:31.713Z,5.57
2022-11-18T16:08:59.812Z,5.59
2022-11-18T16:12:22.143Z,5.54
2022-11-18T16:15:47.335Z,5.45
2022-11-18T16:19:12.548Z,5.4
2022-11-18T16:22:37.771Z,5.35
2022-11-18T16:26:02.974Z,5.3
2022-11-18T16:29:28.213Z,5.24
2022-11-18T16:32:53.385Z,5.12
2022-11-18T16:36:18.578Z,4.97
2022-11-18T16:39:43.789Z,4.78
2022-11-18T16:43:08.994Z,4.68
2022-11-18T16:46:34.225Z,4.64
2022-11-18T16:49:59.464Z,4.64
2022-11-18T16:53:24.656Z,4.62
2022-11-18T16:56:49.867Z,4.63
2022-11-18T17:00:15.075Z,4.62
2022-11-18T17:03:40.288Z,4.51
2022-11-18T17:07:05.530Z,4.39
2022-11-18T17:10:30.681Z,4.28
2022-11-18T17:13:58.171Z,4.22
2022-11-18T17:17:21.078Z,4.17
2022-11-18T17:20:46.321Z,4.15
2022-11-18T17:24:11.496Z,4.25
2022-11-18T17:27:36.692Z,4.34
2022-11-18T17:31:01.902Z,4.32
2022-11-18T17:34:27.108Z,4.22
2022-11-18T17:37:52.354Z,4.12
2022-11-18T17:41:17.531Z,3.96
2022-11-18T17:44:42.742Z,3.77
2022-11-18T17:48:07.960Z,3.62
2022-11-18T17:51:33.202Z,3.56
2022-11-18T17:54:58.447Z,3.53
2022-11-18T17:58:23.641Z,3.48
2022-11-18T18:01:51.720Z,3.52
2022-11-18T18:05:14.082Z,3.5
2022-11-18T18:08:39.300Z,3.41
2022-11-18T18:12:04.552Z,3.32
2022-11-18T18:15:29.747Z,3.16
2022-11-18T18:18:54.957Z,3.02
2022-11-18T18:22:20.153Z,2.93
2022-11-18T18:25:45.370Z,2.89
2022-11-18T18:29:10.599Z,2.91
2022-11-18T18:32:35.807Z,2.97
2022-11-18T18:36:01.027Z,2.99
2022-11-18T18:39:26.236Z,2.95
2022-11-18T18:42:51.439Z,2.92
2022-11-18T18:46:16.672Z,2.93
2022-11-18T18:49:41.871Z,2.89
2022-11-18T18:53:07.074Z,2.79
2022-11-18T18:56:32.285Z,2.78
2022-11-18T18:59:57.524Z,2.79
2022-11-18T19:03:22.819Z,2.72
2022-11-18T19:06:53.501Z,2.65
2022-11-18T19:10:13.118Z,2.61
2022-11-18T19:13:38.364Z,2.64
2022-11-18T19:17:09.880Z,2.79
2022-11-18T19:20:28.827Z,2.86
2022-11-18T19:23:53.985Z,2.85
2022-11-18T19:27:20.120Z,2.88
2022-11-18T19:30:45.349Z,2.9
2022-11-18T19:34:10.577Z,2.91
2022-11-18T19:37:35.832Z,2.85
2022-11-18T19:41:00.981Z,2.81
2022-11-18T19:44:26.203Z,2.8
2022-11-18T19:47:51.472Z,2.74
2022-11-18T19:51:16.711Z,2.7
2022-11-18T19:54:41.961Z,2.66
2022-11-18T19:58:07.170Z,2.66
2022-11-18T20:01:32.504Z,2.68
2022-11-18T20:04:57.635Z,2.57
2022-11-18T20:08:22.849Z,2.51
2022-11-18T20:11:48.167Z,2.49
2022-11-18T20:15:13.296Z,2.48
2022-11-18T20:18:38.497Z,2.42
2022-11-18T20:22:03.717Z,2.31
2022-11-18T20:25:28.939Z,2.27
2022-11-18T20:28:57.371Z,2.26
2022-11-18T20:32:19.330Z,2.24
2022-11-18T20:35:44.524Z,2.27
2022-11-18T20:39:09.735Z,2.31
2022-11-18T20:42:34.931Z,2.28
2022-11-18T20:46:00.148Z,2.27
2022-11-18T20:49:25.332Z,2.37
2022-11-18T20:52:50.536Z,2.46
2022-11-18T20:56:15.745Z,2.59
2022-11-18T20:59:40.944Z,2.62
2022-11-18T21:03:06.145Z,2.68
2022-11-18T21:06:31.335Z,2.69
2022-11-18T21:09:56.549Z,2.66
2022-11-18T21:13:21.726Z,2.68
2022-11-18T21:16:46.956Z,2.72
2022-11-18T21:20:12.190Z,2.76
2022-11-18T21:23:37.362Z,2.75
2022-11-18T21:27:02.593Z,2.68
2022-11-18T21:30:27.751Z,2.65
2022-11-18T21:33:52.937Z,2.61
2022-11-18T21:37:18.149Z,2.53
2022-11-18T21:40:43.320Z,2.46
2022-11-18T21:44:08.511Z,2.39
2022-11-18T21:47:33.743Z,2.35
2022-11-18T21:50:58.955Z,2.33
2022-11-18T21:54:24.169Z,2.33
2022-11-18T21:57:49.344Z,2.27
2022-11-18T22:01:14.596Z,2.24
2022-11-18T22:04:39.745Z,2.23
2022-11-18T22:08:04.945Z,2.28
2022-11-18T22:11:30.179Z,2.34
2022-11-18T22:14:55.367Z,2.34
2022-11-18T22:18:20.584Z,2.24
2022-11-18T22:21:45.777Z,2.15
2022-11-18T22:25:10.982Z,2.1
2022-11-18T22:28:36.213Z,2.03
2022-11-18T22:32:01.402Z,2.06
2022-11-18T22:35:26.598Z,2.1
2022-11-18T22:38:51.841Z,2.14
2022-11-18T22:42:17.041Z,2.11
2022-11-18T22:45:42.274Z,2.08
2022-11-18T22:49:07.642Z,2.06
2022-11-18T22:52:32.641Z,2.02
2022-11-18T22:55:57.840Z,2.01
2022-11-18T22:59:23.071Z,2.01
2022-11-18T23:02:48.284Z,2.06
2022-11-18T23:06:13.446Z,2.12
2022-11-18T23:09:38.644Z,2.18
2022-11-18T23:13:03.833Z,2.18
2022-11-18T23:16:29.068Z,2.17
2022-11-18T23:19:54.308Z,2.14
2022-11-18T23:23:19.456Z,2.14
2022-11-18T23:26:44.664Z,2.15
2022-11-18T23:30:09.869Z,2.14
2022-11-18T23:33:35.070Z,2.14
2022-11-18T23:37:00.357Z,2.14
2022-11-18T23:40:25.475Z,2.15
2022-11-18T23:43:50.677Z,2.05
2022-11-18T23:47:15.876Z,1.98
2022-11-18T23:50:41.078Z,1.98
2022-11-18T23:54:06.305Z,1.93
2022-11-18T23:57:31.479Z,1.87
